Aviation Digital Data Service (ADDS)

Output produced by TAFs form (1701 UTC 17 October 2017)
found at http://aviationweather.gov/adds/tafs/
 
KPUB 171138Z 1712/1812 VRB05KT P6SM FEW220 
     FM171800 15007KT P6SM FEW220 
     FM172300 10007KT P6SM FEW220 
     FM180200 VRB06KT P6SM FEW220